sensor_id;sensor_type;location;lat;lon;timestamp;temperature;humidity
17726;DHT22;8983;53.156;17.960;2023-08-07T00:00:15;14.90;99.90
17726;DHT22;8983;53.156;17.960;2023-08-07T00:02:43;14.90;99.90
17726;DHT22;8983;53.156;17.960;2023-08-07T00:05:11;14.90;99.90
17726;DHT22;8983;53.156;17.960;2023-08-07T00:07:39;14.90;99.90
17726;DHT22;8983;53.156;17.960;2023-08-07T00:10:08;14.90;99.90
17726;DHT22;8983;53.156;17.960;2023-08-07T00:12:37;14.90;99.90
17726;DHT22;8983;53.156;17.960;2023-08-07T00:15:06;14.90;99.90
17726;DHT22;8983;53.156;17.960;2023-08-07T00:17:34;14.90;99.90
17726;DHT22;8983;53.156;17.960;2023-08-07T00:20:03;14.80;99.90
17726;DHT22;8983;53.156;17.960;2023-08-07T00:22:31;14.90;99.90
17726;DHT22;8983;53.156;17.960;2023-08-07T00:24:59;15.00;99.90
17726;DHT22;8983;53.156;17.960;2023-08-07T00:27:27;14.90;99.90
17726;DHT22;8983;53.156;17.960;2023-08-07T00:29:57;14.90;99.90
17726;DHT22;8983;53.156;17.960;2023-08-07T00:32:25;14.90;99.90
17726;DHT22;8983;53.156;17.960;2023-08-07T00:34:53;14.90;99.90
17726;DHT22;8983;53.156;17.960;2023-08-07T00:37:21;14.90;99.90
17726;DHT22;8983;53.156;17.960;2023-08-07T00:39:49;14.90;99.90
17726;DHT22;8983;53.156;17.960;2023-08-07T00:42:18;14.90;99.90
17726;DHT22;8983;53.156;17.960;2023-08-07T00:44:45;14.90;99.90
17726;DHT22;8983;53.156;17.960;2023-08-07T00:47:15;14.80;99.90
17726;DHT22;8983;53.156;17.960;2023-08-07T00:49:43;14.90;99.90
17726;DHT22;8983;53.156;17.960;2023-08-07T00:52:12;14.90;99.90
17726;DHT22;8983;53.156;17.960;2023-08-07T00:54:40;14.80;99.90
17726;DHT22;8983;53.156;17.960;2023-08-07T00:57:11;14.80;99.90
17726;DHT22;8983;53.156;17.960;2023-08-07T00:59:42;14.80;99.90
17726;DHT22;8983;53.156;17.960;2023-08-07T01:02:10;14.80;99.90
17726;DHT22;8983;53.156;17.960;2023-08-07T01:04:41;14.80;99.90
17726;DHT22;8983;53.156;17.960;2023-08-07T01:07:09;14.80;99.90
17726;DHT22;8983;53.156;17.960;2023-08-07T01:09:38;14.80;99.90
17726;DHT22;8983;53.156;17.960;2023-08-07T01:12:13;14.80;99.90
17726;DHT22;8983;53.156;17.960;2023-08-07T01:14:50;14.70;99.90
17726;DHT22;8983;53.156;17.960;2023-08-07T01:17:20;14.70;99.90
17726;DHT22;8983;53.156;17.960;2023-08-07T01:19:51;14.60;99.90
17726;DHT22;8983;53.156;17.960;2023-08-07T01:22:21;14.70;99.90
17726;DHT22;8983;53.156;17.960;2023-08-07T01:24:50;14.70;99.90
17726;DHT22;8983;53.156;17.960;2023-08-07T01:27:32;14.80;99.90
17726;DHT22;8983;53.156;17.960;2023-08-07T01:30:11;14.80;99.90
17726;DHT22;8983;53.156;17.960;2023-08-07T01:32:49;14.80;99.90
17726;DHT22;8983;53.156;17.960;2023-08-07T01:35:22;14.70;99.90
17726;DHT22;8983;53.156;17.960;2023-08-07T01:37:56;14.70;99.90
17726;DHT22;8983;53.156;17.960;2023-08-07T01:40:24;14.70;99.90
17726;DHT22;8983;53.156;17.960;2023-08-07T01:42:52;14.70;99.90
17726;DHT22;8983;53.156;17.960;2023-08-07T01:45:24;14.70;99.90
17726;DHT22;8983;53.156;17.960;2023-08-07T01:47:52;14.70;99.90
17726;DHT22;8983;53.156;17.960;2023-08-07T01:50:21;14.70;99.90
17726;DHT22;8983;53.156;17.960;2023-08-07T01:52:49;14.70;99.90
17726;DHT22;8983;53.156;17.960;2023-08-07T01:55:20;14.70;99.90
17726;DHT22;8983;53.156;17.960;2023-08-07T01:57:48;14.70;99.90
17726;DHT22;8983;53.156;17.960;2023-08-07T02:00:17;14.70;99.90
17726;DHT22;8983;53.156;17.960;2023-08-07T02:02:45;14.70;99.90
17726;DHT22;8983;53.156;17.960;2023-08-07T02:05:14;14.70;99.90
17726;DHT22;8983;53.156;17.960;2023-08-07T02:07:43;14.70;99.90
17726;DHT22;8983;53.156;17.960;2023-08-07T02:10:11;14.70;99.90
17726;DHT22;8983;53.156;17.960;2023-08-07T02:12:41;14.70;99.90
17726;DHT22;8983;53.156;17.960;2023-08-07T02:15:09;14.60;99.90
17726;DHT22;8983;53.156;17.960;2023-08-07T02:17:37;14.70;99.90
17726;DHT22;8983;53.156;17.960;2023-08-07T02:20:09;14.70;99.90
17726;DHT22;8983;53.156;17.960;2023-08-07T02:22:38;14.60;99.90
17726;DHT22;8983;53.156;17.960;2023-08-07T02:25:06;14.60;99.90
17726;DHT22;8983;53.156;17.960;2023-08-07T02:27:35;14.60;99.90
17726;DHT22;8983;53.156;17.960;2023-08-07T02:30:05;14.60;99.90
17726;DHT22;8983;53.156;17.960;2023-08-07T02:32:34;14.60;99.90
17726;DHT22;8983;53.156;17.960;2023-08-07T02:35:02;14.60;99.90
17726;DHT22;8983;53.156;17.960;2023-08-07T02:37:30;14.60;99.90
17726;DHT22;8983;53.156;17.960;2023-08-07T02:39:58;14.50;99.90
17726;DHT22;8983;53.156;17.960;2023-08-07T02:42:26;14.60;99.90
17726;DHT22;8983;53.156;17.960;2023-08-07T02:44:54;14.70;99.90
17726;DHT22;8983;53.156;17.960;2023-08-07T02:47:24;14.50;99.90
17726;DHT22;8983;53.156;17.960;2023-08-07T02:49:52;14.50;99.90
17726;DHT22;8983;53.156;17.960;2023-08-07T02:52:20;14.60;99.90
17726;DHT22;8983;53.156;17.960;2023-08-07T02:54:48;14.60;99.90
17726;DHT22;8983;53.156;17.960;2023-08-07T02:57:16;14.50;99.90
17726;DHT22;8983;53.156;17.960;2023-08-07T02:59:44;14.50;99.90
17726;DHT22;8983;53.156;17.960;2023-08-07T03:02:12;14.50;99.90
17726;DHT22;8983;53.156;17.960;2023-08-07T03:04:41;14.50;99.90
17726;DHT22;8983;53.156;17.960;2023-08-07T03:07:09;14.60;99.90
17726;DHT22;8983;53.156;17.960;2023-08-07T03:09:37;14.50;99.90
17726;DHT22;8983;53.156;17.960;2023-08-07T03:12:06;14.50;99.90
17726;DHT22;8983;53.156;17.960;2023-08-07T03:14:34;14.50;99.90
17726;DHT22;8983;53.156;17.960;2023-08-07T03:17:03;14.50;99.90
17726;DHT22;8983;53.156;17.960;2023-08-07T03:19:31;14.50;99.90
17726;DHT22;8983;53.156;17.960;2023-08-07T03:22:00;14.60;99.90
17726;DHT22;8983;53.156;17.960;2023-08-07T03:24:28;14.50;99.90
17726;DHT22;8983;53.156;17.960;2023-08-07T03:26:56;14.50;99.90
17726;DHT22;8983;53.156;17.960;2023-08-07T03:29:24;14.50;99.90
17726;DHT22;8983;53.156;17.960;2023-08-07T03:31:52;14.50;99.90
17726;DHT22;8983;53.156;17.960;2023-08-07T03:34:20;14.40;99.90
17726;DHT22;8983;53.156;17.960;2023-08-07T03:36:48;14.50;99.90
17726;DHT22;8983;53.156;17.960;2023-08-07T03:39:18;14.40;99.90
17726;DHT22;8983;53.156;17.960;2023-08-07T03:41:46;14.40;99.90
17726;DHT22;8983;53.156;17.960;2023-08-07T03:44:14;14.40;99.90
17726;DHT22;8983;53.156;17.960;2023-08-07T03:46:42;14.30;99.90
17726;DHT22;8983;53.156;17.960;2023-08-07T03:49:10;14.40;99.90
17726;DHT22;8983;53.156;17.960;2023-08-07T03:51:38;14.40;99.90
17726;DHT22;8983;53.156;17.960;2023-08-07T03:54:06;14.40;99.90
17726;DHT22;8983;53.156;17.960;2023-08-07T03:56:36;14.40;99.90
17726;DHT22;8983;53.156;17.960;2023-08-07T03:59:04;14.40;99.90
17726;DHT22;8983;53.156;17.960;2023-08-07T04:01:33;14.40;99.90
17726;DHT22;8983;53.156;17.960;2023-08-07T04:04:01;14.40;99.90
17726;DHT22;8983;53.156;17.960;2023-08-07T04:06:29;14.30;99.90
17726;DHT22;8983;53.156;17.960;2023-08-07T04:08:57;14.30;99.90
17726;DHT22;8983;53.156;17.960;2023-08-07T04:11:25;14.30;99.90
17726;DHT22;8983;53.156;17.960;2023-08-07T04:13:55;14.30;99.90
17726;DHT22;8983;53.156;17.960;2023-08-07T04:16:23;14.30;99.90
17726;DHT22;8983;53.156;17.960;2023-08-07T04:18:51;14.30;99.90
17726;DHT22;8983;53.156;17.960;2023-08-07T04:21:22;14.30;99.90
17726;DHT22;8983;53.156;17.960;2023-08-07T04:23:50;14.20;99.90
17726;DHT22;8983;53.156;17.960;2023-08-07T04:26:18;14.30;99.90
17726;DHT22;8983;53.156;17.960;2023-08-07T04:28:46;14.30;99.90
17726;DHT22;8983;53.156;17.960;2023-08-07T04:31:15;14.20;99.90
17726;DHT22;8983;53.156;17.960;2023-08-07T04:33:43;14.20;99.90
17726;DHT22;8983;53.156;17.960;2023-08-07T04:36:12;14.30;99.90
17726;DHT22;8983;53.156;17.960;2023-08-07T04:38:40;14.20;99.90
17726;DHT22;8983;53.156;17.960;2023-08-07T04:41:08;14.20;99.90
17726;DHT22;8983;53.156;17.960;2023-08-07T04:43:36;14.20;99.90
17726;DHT22;8983;53.156;17.960;2023-08-07T04:46:04;14.20;99.90
17726;DHT22;8983;53.156;17.960;2023-08-07T04:48:33;14.10;99.90
17726;DHT22;8983;53.156;17.960;2023-08-07T04:51:01;14.20;99.90
17726;DHT22;8983;53.156;17.960;2023-08-07T04:53:30;14.20;99.90
17726;DHT22;8983;53.156;17.960;2023-08-07T04:55:59;14.10;99.90
17726;DHT22;8983;53.156;17.960;2023-08-07T04:58:27;14.20;99.90
17726;DHT22;8983;53.156;17.960;2023-08-07T05:00:55;14.20;99.90
17726;DHT22;8983;53.156;17.960;2023-08-07T05:03:24;14.20;99.90
17726;DHT22;8983;53.156;17.960;2023-08-07T05:05:59;14.10;99.90
17726;DHT22;8983;53.156;17.960;2023-08-07T05:08:31;14.10;99.90
17726;DHT22;8983;53.156;17.960;2023-08-07T05:11:02;14.10;99.90
17726;DHT22;8983;53.156;17.960;2023-08-07T05:13:30;14.10;99.90
17726;DHT22;8983;53.156;17.960;2023-08-07T05:15:58;14.10;99.90
17726;DHT22;8983;53.156;17.960;2023-08-07T05:18:26;14.10;99.90
17726;DHT22;8983;53.156;17.960;2023-08-07T05:20:54;14.10;99.90
17726;DHT22;8983;53.156;17.960;2023-08-07T05:23:24;14.10;99.90
17726;DHT22;8983;53.156;17.960;2023-08-07T05:25:52;14.10;99.90
17726;DHT22;8983;53.156;17.960;2023-08-07T05:28:20;14.10;99.90
17726;DHT22;8983;53.156;17.960;2023-08-07T05:30:48;14.10;99.90
17726;DHT22;8983;53.156;17.960;2023-08-07T05:33:16;14.10;99.90
17726;DHT22;8983;53.156;17.960;2023-08-07T05:35:44;14.10;99.90
17726;DHT22;8983;53.156;17.960;2023-08-07T05:38:12;14.00;99.90
17726;DHT22;8983;53.156;17.960;2023-08-07T05:40:42;14.10;99.90
17726;DHT22;8983;53.156;17.960;2023-08-07T05:43:10;14.00;99.90
17726;DHT22;8983;53.156;17.960;2023-08-07T05:45:39;14.10;99.90
17726;DHT22;8983;53.156;17.960;2023-08-07T05:48:07;14.10;99.90
17726;DHT22;8983;53.156;17.960;2023-08-07T05:50:36;14.00;99.90
17726;DHT22;8983;53.156;17.960;2023-08-07T05:53:04;14.10;99.90
17726;DHT22;8983;53.156;17.960;2023-08-07T05:55:32;14.00;99.90
17726;DHT22;8983;53.156;17.960;2023-08-07T05:58:01;14.10;99.90
17726;DHT22;8983;53.156;17.960;2023-08-07T06:00:30;14.10;99.90
17726;DHT22;8983;53.156;17.960;2023-08-07T06:02:58;14.00;99.90
17726;DHT22;8983;53.156;17.960;2023-08-07T06:05:26;14.00;99.90
17726;DHT22;8983;53.156;17.960;2023-08-07T06:07:54;14.10;99.90
17726;DHT22;8983;53.156;17.960;2023-08-07T06:10:23;14.10;99.90
17726;DHT22;8983;53.156;17.960;2023-08-07T06:12:51;14.10;99.90
17726;DHT22;8983;53.156;17.960;2023-08-07T06:15:20;14.10;99.90
17726;DHT22;8983;53.156;17.960;2023-08-07T06:17:48;14.10;99.90
17726;DHT22;8983;53.156;17.960;2023-08-07T06:20:18;14.10;99.90
17726;DHT22;8983;53.156;17.960;2023-08-07T06:22:47;14.10;99.90
17726;DHT22;8983;53.156;17.960;2023-08-07T06:25:15;14.10;99.90
17726;DHT22;8983;53.156;17.960;2023-08-07T06:27:43;14.10;99.90
17726;DHT22;8983;53.156;17.960;2023-08-07T06:30:12;14.10;99.90
17726;DHT22;8983;53.156;17.960;2023-08-07T06:32:42;14.10;99.90
17726;DHT22;8983;53.156;17.960;2023-08-07T06:35:10;14.10;99.90
17726;DHT22;8983;53.156;17.960;2023-08-07T06:37:38;14.00;99.90
17726;DHT22;8983;53.156;17.960;2023-08-07T06:40:07;14.10;99.90
17726;DHT22;8983;53.156;17.960;2023-08-07T06:42:35;14.10;99.90
17726;DHT22;8983;53.156;17.960;2023-08-07T06:45:04;14.10;99.90
17726;DHT22;8983;53.156;17.960;2023-08-07T06:47:33;14.20;99.90
17726;DHT22;8983;53.156;17.960;2023-08-07T06:50:02;14.20;99.90
17726;DHT22;8983;53.156;17.960;2023-08-07T06:52:30;14.20;99.90
17726;DHT22;8983;53.156;17.960;2023-08-07T06:54:58;14.30;99.90
17726;DHT22;8983;53.156;17.960;2023-08-07T06:57:26;14.30;99.90
17726;DHT22;8983;53.156;17.960;2023-08-07T06:59:54;14.30;99.90
17726;DHT22;8983;53.156;17.960;2023-08-07T07:02:22;14.20;99.90
17726;DHT22;8983;53.156;17.960;2023-08-07T07:04:50;14.20;99.90
17726;DHT22;8983;53.156;17.960;2023-08-07T07:07:20;14.30;99.90
17726;DHT22;8983;53.156;17.960;2023-08-07T07:09:48;14.20;99.90
17726;DHT22;8983;53.156;17.960;2023-08-07T07:12:16;14.20;99.90
17726;DHT22;8983;53.156;17.960;2023-08-07T07:14:44;14.30;99.90
17726;DHT22;8983;53.156;17.960;2023-08-07T07:17:12;14.20;99.90
17726;DHT22;8983;53.156;17.960;2023-08-07T07:19:40;14.20;99.90
17726;DHT22;8983;53.156;17.960;2023-08-07T07:22:08;14.20;99.90
17726;DHT22;8983;53.156;17.960;2023-08-07T07:24:38;14.30;99.90
17726;DHT22;8983;53.156;17.960;2023-08-07T07:27:06;14.30;99.90
17726;DHT22;8983;53.156;17.960;2023-08-07T07:29:34;14.30;99.90
17726;DHT22;8983;53.156;17.960;2023-08-07T07:32:03;14.30;99.90
17726;DHT22;8983;53.156;17.960;2023-08-07T07:34:31;14.30;99.90
17726;DHT22;8983;53.156;17.960;2023-08-07T07:37:00;14.30;99.90
17726;DHT22;8983;53.156;17.960;2023-08-07T07:39:27;14.30;99.90
17726;DHT22;8983;53.156;17.960;2023-08-07T07:41:58;14.30;99.90
17726;DHT22;8983;53.156;17.960;2023-08-07T07:44:26;14.30;99.90
17726;DHT22;8983;53.156;17.960;2023-08-07T07:46:54;14.30;99.90
17726;DHT22;8983;53.156;17.960;2023-08-07T07:49:22;14.30;99.90
17726;DHT22;8983;53.156;17.960;2023-08-07T07:51:51;14.40;99.90
17726;DHT22;8983;53.156;17.960;2023-08-07T07:54:18;14.40;99.90
17726;DHT22;8983;53.156;17.960;2023-08-07T07:56:46;14.50;99.90
17726;DHT22;8983;53.156;17.960;2023-08-07T07:59:17;14.60;99.90
17726;DHT22;8983;53.156;17.960;2023-08-07T08:01:45;14.60;99.90
17726;DHT22;8983;53.156;17.960;2023-08-07T08:04:13;14.70;99.90
17726;DHT22;8983;53.156;17.960;2023-08-07T08:06:41;14.70;99.90
17726;DHT22;8983;53.156;17.960;2023-08-07T08:09:11;14.70;99.90
17726;DHT22;8983;53.156;17.960;2023-08-07T08:11:39;14.70;99.90
17726;DHT22;8983;53.156;17.960;2023-08-07T08:14:07;14.90;99.90
17726;DHT22;8983;53.156;17.960;2023-08-07T08:16:37;14.90;99.90
17726;DHT22;8983;53.156;17.960;2023-08-07T08:19:05;15.00;99.90
17726;DHT22;8983;53.156;17.960;2023-08-07T08:21:34;15.00;99.90
17726;DHT22;8983;53.156;17.960;2023-08-07T08:24:03;15.10;99.90
17726;DHT22;8983;53.156;17.960;2023-08-07T08:26:32;15.10;99.90
17726;DHT22;8983;53.156;17.960;2023-08-07T08:29:00;15.10;99.90
17726;DHT22;8983;53.156;17.960;2023-08-07T08:31:28;15.10;99.90
17726;DHT22;8983;53.156;17.960;2023-08-07T08:33:57;15.10;99.90
17726;DHT22;8983;53.156;17.960;2023-08-07T08:36:25;15.20;99.90
17726;DHT22;8983;53.156;17.960;2023-08-07T08:38:53;15.20;99.90
17726;DHT22;8983;53.156;17.960;2023-08-07T08:41:22;15.30;99.90
17726;DHT22;8983;53.156;17.960;2023-08-07T08:43:51;15.30;99.90
17726;DHT22;8983;53.156;17.960;2023-08-07T08:46:20;15.40;99.90
17726;DHT22;8983;53.156;17.960;2023-08-07T08:48:51;15.40;99.90
17726;DHT22;8983;53.156;17.960;2023-08-07T08:51:21;15.60;99.90
17726;DHT22;8983;53.156;17.960;2023-08-07T08:53:50;15.50;99.90
17726;DHT22;8983;53.156;17.960;2023-08-07T08:56:19;15.70;99.90
17726;DHT22;8983;53.156;17.960;2023-08-07T08:58:50;15.70;99.90
17726;DHT22;8983;53.156;17.960;2023-08-07T09:01:18;15.80;99.90
17726;DHT22;8983;53.156;17.960;2023-08-07T09:03:50;15.90;99.90
17726;DHT22;8983;53.156;17.960;2023-08-07T09:06:20;16.00;99.90
17726;DHT22;8983;53.156;17.960;2023-08-07T09:08:49;16.20;99.90
17726;DHT22;8983;53.156;17.960;2023-08-07T09:11:18;16.30;99.90
17726;DHT22;8983;53.156;17.960;2023-08-07T09:13:47;16.50;99.90
17726;DHT22;8983;53.156;17.960;2023-08-07T09:16:17;16.50;99.90
17726;DHT22;8983;53.156;17.960;2023-08-07T09:18:46;16.60;99.90
17726;DHT22;8983;53.156;17.960;2023-08-07T09:21:17;16.70;99.90
17726;DHT22;8983;53.156;17.960;2023-08-07T09:23:47;16.60;99.90
17726;DHT22;8983;53.156;17.960;2023-08-07T09:26:21;16.70;99.90
17726;DHT22;8983;53.156;17.960;2023-08-07T09:28:51;16.70;99.90
17726;DHT22;8983;53.156;17.960;2023-08-07T09:31:21;16.70;99.90
17726;DHT22;8983;53.156;17.960;2023-08-07T09:33:49;16.70;99.90
17726;DHT22;8983;53.156;17.960;2023-08-07T09:36:17;16.70;99.90
17726;DHT22;8983;53.156;17.960;2023-08-07T09:38:50;16.70;99.90
17726;DHT22;8983;53.156;17.960;2023-08-07T09:41:19;16.70;99.90
17726;DHT22;8983;53.156;17.960;2023-08-07T09:43:47;16.80;99.90
17726;DHT22;8983;53.156;17.960;2023-08-07T09:46:17;16.80;99.90
17726;DHT22;8983;53.156;17.960;2023-08-07T09:48:47;16.80;99.90
17726;DHT22;8983;53.156;17.960;2023-08-07T09:51:15;16.90;99.90
17726;DHT22;8983;53.156;17.960;2023-08-07T09:53:43;16.90;99.90
17726;DHT22;8983;53.156;17.960;2023-08-07T09:56:12;17.00;99.90
17726;DHT22;8983;53.156;17.960;2023-08-07T09:58:46;16.90;99.90
17726;DHT22;8983;53.156;17.960;2023-08-07T10:01:16;17.00;99.90
17726;DHT22;8983;53.156;17.960;2023-08-07T10:03:45;17.10;99.90
17726;DHT22;8983;53.156;17.960;2023-08-07T10:06:14;17.00;99.90
17726;DHT22;8983;53.156;17.960;2023-08-07T10:08:43;16.90;99.90
17726;DHT22;8983;53.156;17.960;2023-08-07T10:11:14;16.90;99.90
17726;DHT22;8983;53.156;17.960;2023-08-07T10:13:45;16.80;99.90
17726;DHT22;8983;53.156;17.960;2023-08-07T10:16:14;16.80;99.90
17726;DHT22;8983;53.156;17.960;2023-08-07T10:18:43;16.80;99.90
17726;DHT22;8983;53.156;17.960;2023-08-07T10:21:11;16.80;99.90
17726;DHT22;8983;53.156;17.960;2023-08-07T10:23:40;16.80;99.90
17726;DHT22;8983;53.156;17.960;2023-08-07T10:26:09;16.70;99.90
17726;DHT22;8983;53.156;17.960;2023-08-07T10:28:41;16.70;99.90
17726;DHT22;8983;53.156;17.960;2023-08-07T10:31:11;16.90;99.90
17726;DHT22;8983;53.156;17.960;2023-08-07T10:33:40;17.10;99.90
17726;DHT22;8983;53.156;17.960;2023-08-07T10:36:09;17.10;99.90
17726;DHT22;8983;53.156;17.960;2023-08-07T10:38:38;17.10;99.90
17726;DHT22;8983;53.156;17.960;2023-08-07T10:41:07;17.00;99.90
17726;DHT22;8983;53.156;17.960;2023-08-07T10:43:40;17.10;99.90
17726;DHT22;8983;53.156;17.960;2023-08-07T10:46:12;17.00;99.90
17726;DHT22;8983;53.156;17.960;2023-08-07T10:48:41;16.90;99.90
17726;DHT22;8983;53.156;17.960;2023-08-07T10:51:12;16.80;99.90
17726;DHT22;8983;53.156;17.960;2023-08-07T10:53:42;16.60;99.90
17726;DHT22;8983;53.156;17.960;2023-08-07T10:56:15;16.30;99.90
17726;DHT22;8983;53.156;17.960;2023-08-07T10:58:49;16.40;99.90
17726;DHT22;8983;53.156;17.960;2023-08-07T11:01:22;16.30;99.90
17726;DHT22;8983;53.156;17.960;2023-08-07T11:03:51;16.30;99.90
17726;DHT22;8983;53.156;17.960;2023-08-07T11:06:24;16.30;99.90
17726;DHT22;8983;53.156;17.960;2023-08-07T11:08:53;16.50;99.90
17726;DHT22;8983;53.156;17.960;2023-08-07T11:11:21;16.60;99.90
17726;DHT22;8983;53.156;17.960;2023-08-07T11:13:51;16.70;99.90
17726;DHT22;8983;53.156;17.960;2023-08-07T11:16:19;16.70;99.90
17726;DHT22;8983;53.156;17.960;2023-08-07T11:18:49;16.80;99.90
17726;DHT22;8983;53.156;17.960;2023-08-07T11:21:17;16.90;99.90
17726;DHT22;8983;53.156;17.960;2023-08-07T11:23:46;16.80;99.90
17726;DHT22;8983;53.156;17.960;2023-08-07T11:26:14;16.60;99.90
17726;DHT22;8983;53.156;17.960;2023-08-07T11:28:42;16.50;99.90
17726;DHT22;8983;53.156;17.960;2023-08-07T11:31:12;16.50;99.90
17726;DHT22;8983;53.156;17.960;2023-08-07T11:33:40;16.60;99.90
17726;DHT22;8983;53.156;17.960;2023-08-07T11:36:12;16.60;99.90
17726;DHT22;8983;53.156;17.960;2023-08-07T11:38:42;16.60;99.90
17726;DHT22;8983;53.156;17.960;2023-08-07T11:41:13;16.60;99.90
17726;DHT22;8983;53.156;17.960;2023-08-07T11:43:42;16.50;99.90
17726;DHT22;8983;53.156;17.960;2023-08-07T11:46:12;16.40;99.90
17726;DHT22;8983;53.156;17.960;2023-08-07T11:48:42;16.40;99.90
17726;DHT22;8983;53.156;17.960;2023-08-07T11:51:10;16.30;99.90
17726;DHT22;8983;53.156;17.960;2023-08-07T11:53:40;16.30;99.90
17726;DHT22;8983;53.156;17.960;2023-08-07T11:56:10;16.30;99.90
17726;DHT22;8983;53.156;17.960;2023-08-07T11:58:43;16.40;99.90
17726;DHT22;8983;53.156;17.960;2023-08-07T12:01:15;16.40;99.90
17726;DHT22;8983;53.156;17.960;2023-08-07T12:03:52;16.40;99.90
17726;DHT22;8983;53.156;17.960;2023-08-07T12:06:22;16.30;99.90
17726;DHT22;8983;53.156;17.960;2023-08-07T12:08:54;16.40;99.90
17726;DHT22;8983;53.156;17.960;2023-08-07T12:11:23;16.50;99.90
17726;DHT22;8983;53.156;17.960;2023-08-07T12:13:52;16.50;99.90
17726;DHT22;8983;53.156;17.960;2023-08-07T12:16:21;16.60;99.90
17726;DHT22;8983;53.156;17.960;2023-08-07T12:18:51;16.70;99.90
17726;DHT22;8983;53.156;17.960;2023-08-07T12:21:21;16.80;99.90
17726;DHT22;8983;53.156;17.960;2023-08-07T12:23:51;16.90;99.90
17726;DHT22;8983;53.156;17.960;2023-08-07T12:26:22;17.10;99.90
17726;DHT22;8983;53.156;17.960;2023-08-07T12:28:51;17.30;99.90
17726;DHT22;8983;53.156;17.960;2023-08-07T12:31:21;17.60;99.90
17726;DHT22;8983;53.156;17.960;2023-08-07T12:33:49;18.00;99.90
17726;DHT22;8983;53.156;17.960;2023-08-07T12:36:18;18.40;99.90
17726;DHT22;8983;53.156;17.960;2023-08-07T12:38:46;18.70;99.90
17726;DHT22;8983;53.156;17.960;2023-08-07T12:41:15;18.80;99.90
17726;DHT22;8983;53.156;17.960;2023-08-07T12:43:46;18.80;99.90
17726;DHT22;8983;53.156;17.960;2023-08-07T12:46:14;18.70;99.90
17726;DHT22;8983;53.156;17.960;2023-08-07T12:48:46;18.60;99.90
17726;DHT22;8983;53.156;17.960;2023-08-07T12:51:14;18.50;99.90
17726;DHT22;8983;53.156;17.960;2023-08-07T12:53:42;18.40;99.90
17726;DHT22;8983;53.156;17.960;2023-08-07T12:56:12;18.30;99.90
17726;DHT22;8983;53.156;17.960;2023-08-07T12:58:40;18.30;99.90
17726;DHT22;8983;53.156;17.960;2023-08-07T13:01:09;18.30;99.90
17726;DHT22;8983;53.156;17.960;2023-08-07T13:03:37;18.20;99.90
17726;DHT22;8983;53.156;17.960;2023-08-07T13:06:07;18.10;99.90
17726;DHT22;8983;53.156;17.960;2023-08-07T13:08:35;18.00;99.90
17726;DHT22;8983;53.156;17.960;2023-08-07T13:11:04;17.90;99.90
17726;DHT22;8983;53.156;17.960;2023-08-07T13:13:32;17.80;99.90
17726;DHT22;8983;53.156;17.960;2023-08-07T13:16:00;17.80;99.90
17726;DHT22;8983;53.156;17.960;2023-08-07T13:18:29;17.80;99.90
17726;DHT22;8983;53.156;17.960;2023-08-07T13:20:57;17.90;99.90
17726;DHT22;8983;53.156;17.960;2023-08-07T13:23:26;18.10;99.90
17726;DHT22;8983;53.156;17.960;2023-08-07T13:25:54;18.30;99.90
17726;DHT22;8983;53.156;17.960;2023-08-07T13:28:22;18.90;99.90
17726;DHT22;8983;53.156;17.960;2023-08-07T13:30:50;19.60;99.90
17726;DHT22;8983;53.156;17.960;2023-08-07T13:33:21;20.10;99.90
17726;DHT22;8983;53.156;17.960;2023-08-07T13:35:49;20.50;99.90
17726;DHT22;8983;53.156;17.960;2023-08-07T13:38:17;20.70;99.90
17726;DHT22;8983;53.156;17.960;2023-08-07T13:40:47;20.90;99.90
17726;DHT22;8983;53.156;17.960;2023-08-07T13:43:15;20.60;99.90
17726;DHT22;8983;53.156;17.960;2023-08-07T13:45:43;20.30;99.90
17726;DHT22;8983;53.156;17.960;2023-08-07T13:48:11;19.90;99.90
17726;DHT22;8983;53.156;17.960;2023-08-07T13:50:40;19.80;99.90
17726;DHT22;8983;53.156;17.960;2023-08-07T13:53:09;19.50;99.90
17726;DHT22;8983;53.156;17.960;2023-08-07T13:55:43;19.40;99.90
17726;DHT22;8983;53.156;17.960;2023-08-07T13:58:13;19.20;99.90
17726;DHT22;8983;53.156;17.960;2023-08-07T14:00:42;19.10;99.90
17726;DHT22;8983;53.156;17.960;2023-08-07T14:03:11;19.00;99.90
17726;DHT22;8983;53.156;17.960;2023-08-07T14:05:40;19.00;99.90
17726;DHT22;8983;53.156;17.960;2023-08-07T14:08:08;18.80;99.90
17726;DHT22;8983;53.156;17.960;2023-08-07T14:10:38;18.70;99.90
17726;DHT22;8983;53.156;17.960;2023-08-07T14:13:08;18.60;99.90
17726;DHT22;8983;53.156;17.960;2023-08-07T14:15:59;18.50;99.90
17726;DHT22;8983;53.156;17.960;2023-08-07T14:18:27;18.40;99.90
17726;DHT22;8983;53.156;17.960;2023-08-07T14:20:55;18.40;99.90
17726;DHT22;8983;53.156;17.960;2023-08-07T14:23:29;18.20;99.90
17726;DHT22;8983;53.156;17.960;2023-08-07T14:26:00;18.20;99.90
17726;DHT22;8983;53.156;17.960;2023-08-07T14:28:28;18.20;99.90
17726;DHT22;8983;53.156;17.960;2023-08-07T14:30:59;18.10;99.90
17726;DHT22;8983;53.156;17.960;2023-08-07T14:33:28;18.20;99.90
17726;DHT22;8983;53.156;17.960;2023-08-07T14:35:56;18.10;99.90
17726;DHT22;8983;53.156;17.960;2023-08-07T14:38:24;18.20;99.90
17726;DHT22;8983;53.156;17.960;2023-08-07T14:40:52;18.10;99.90
17726;DHT22;8983;53.156;17.960;2023-08-07T14:43:20;18.10;99.90
17726;DHT22;8983;53.156;17.960;2023-08-07T14:45:49;18.10;99.90
17726;DHT22;8983;53.156;17.960;2023-08-07T14:48:18;18.10;99.90
17726;DHT22;8983;53.156;17.960;2023-08-07T14:50:46;18.20;99.90
17726;DHT22;8983;53.156;17.960;2023-08-07T14:53:14;18.10;99.90
17726;DHT22;8983;53.156;17.960;2023-08-07T14:55:43;18.20;99.90
17726;DHT22;8983;53.156;17.960;2023-08-07T14:58:12;18.20;99.90
17726;DHT22;8983;53.156;17.960;2023-08-07T15:00:40;18.20;99.90
17726;DHT22;8983;53.156;17.960;2023-08-07T15:03:08;18.20;99.90
17726;DHT22;8983;53.156;17.960;2023-08-07T15:05:38;18.00;99.90
17726;DHT22;8983;53.156;17.960;2023-08-07T15:08:06;18.10;99.90
17726;DHT22;8983;53.156;17.960;2023-08-07T15:10:34;18.10;99.90
17726;DHT22;8983;53.156;17.960;2023-08-07T15:13:03;18.10;99.90
17726;DHT22;8983;53.156;17.960;2023-08-07T15:15:31;18.10;99.90
17726;DHT22;8983;53.156;17.960;2023-08-07T15:18:00;18.10;99.90
17726;DHT22;8983;53.156;17.960;2023-08-07T15:20:30;18.10;99.90
17726;DHT22;8983;53.156;17.960;2023-08-07T15:22:59;18.10;99.90
17726;DHT22;8983;53.156;17.960;2023-08-07T15:25:27;18.10;99.90
17726;DHT22;8983;53.156;17.960;2023-08-07T15:27:55;18.10;99.90
17726;DHT22;8983;53.156;17.960;2023-08-07T15:30:27;18.00;99.90
17726;DHT22;8983;53.156;17.960;2023-08-07T15:32:57;18.10;99.90
17726;DHT22;8983;53.156;17.960;2023-08-07T15:35:25;18.10;99.90
17726;DHT22;8983;53.156;17.960;2023-08-07T15:37:57;18.20;99.90
17726;DHT22;8983;53.156;17.960;2023-08-07T15:40:26;18.20;99.90